sensor_id;sensor_type;location;lat;lon;timestamp;P1;durP1;ratioP1;P2;durP2;ratioP2
47329;SDS011;33060;50.178;7.570;2022-12-18T00:00:59;12.97;;;7.70;;
47329;SDS011;33060;50.178;7.570;2022-12-18T00:03:28;14.13;;;8.10;;
47329;SDS011;33060;50.178;7.570;2022-12-18T00:05:55;12.20;;;7.60;;
47329;SDS011;33060;50.178;7.570;2022-12-18T00:08:23;12.27;;;7.57;;
47329;SDS011;33060;50.178;7.570;2022-12-18T00:10:49;11.77;;;7.70;;
47329;SDS011;33060;50.178;7.570;2022-12-18T00:13:18;12.00;;;8.17;;
47329;SDS011;33060;50.178;7.570;2022-12-18T00:15:46;15.50;;;8.83;;
47329;SDS011;33060;50.178;7.570;2022-12-18T00:18:12;15.23;;;8.93;;
47329;SDS011;33060;50.178;7.570;2022-12-18T00:20:45;16.87;;;7.97;;
47329;SDS011;33060;50.178;7.570;2022-12-18T00:23:12;15.07;;;9.17;;
47329;SDS011;33060;50.178;7.570;2022-12-18T00:25:39;13.57;;;8.50;;
47329;SDS011;33060;50.178;7.570;2022-12-18T00:28:06;13.97;;;8.50;;
47329;SDS011;33060;50.178;7.570;2022-12-18T00:30:32;14.97;;;8.77;;
47329;SDS011;33060;50.178;7.570;2022-12-18T00:32:59;17.07;;;9.30;;
47329;SDS011;33060;50.178;7.570;2022-12-18T00:35:26;13.40;;;8.13;;
47329;SDS011;33060;50.178;7.570;2022-12-18T00:37:52;16.03;;;8.97;;
47329;SDS011;33060;50.178;7.570;2022-12-18T00:40:19;17.43;;;9.10;;
47329;SDS011;33060;50.178;7.570;2022-12-18T00:42:46;17.70;;;9.90;;
47329;SDS011;33060;50.178;7.570;2022-12-18T00:45:22;14.43;;;9.13;;
47329;SDS011;33060;50.178;7.570;2022-12-18T00:47:50;13.53;;;8.40;;
47329;SDS011;33060;50.178;7.570;2022-12-18T00:50:17;16.10;;;10.17;;
47329;SDS011;33060;50.178;7.570;2022-12-18T00:52:45;15.73;;;9.83;;
47329;SDS011;33060;50.178;7.570;2022-12-18T00:55:12;16.97;;;9.33;;
47329;SDS011;33060;50.178;7.570;2022-12-18T00:57:39;17.90;;;9.40;;
47329;SDS011;33060;50.178;7.570;2022-12-18T01:00:07;17.30;;;9.47;;
47329;SDS011;33060;50.178;7.570;2022-12-18T01:02:36;14.67;;;8.70;;
47329;SDS011;33060;50.178;7.570;2022-12-18T01:05:05;13.10;;;7.80;;
47329;SDS011;33060;50.178;7.570;2022-12-18T01:07:32;13.53;;;8.23;;
47329;SDS011;33060;50.178;7.570;2022-12-18T01:09:58;12.50;;;7.83;;
47329;SDS011;33060;50.178;7.570;2022-12-18T01:12:25;14.60;;;8.57;;
47329;SDS011;33060;50.178;7.570;2022-12-18T01:14:52;12.73;;;8.53;;
47329;SDS011;33060;50.178;7.570;2022-12-18T01:17:19;13.03;;;8.10;;
47329;SDS011;33060;50.178;7.570;2022-12-18T01:19:46;13.20;;;8.23;;
47329;SDS011;33060;50.178;7.570;2022-12-18T01:22:13;14.57;;;8.00;;
47329;SDS011;33060;50.178;7.570;2022-12-18T01:24:39;13.90;;;8.57;;
47329;SDS011;33060;50.178;7.570;2022-12-18T01:27:06;14.97;;;8.13;;
47329;SDS011;33060;50.178;7.570;2022-12-18T01:29:33;14.97;;;8.60;;
47329;SDS011;33060;50.178;7.570;2022-12-18T01:32:00;17.53;;;9.40;;
47329;SDS011;33060;50.178;7.570;2022-12-18T01:34:28;17.33;;;8.87;;
47329;SDS011;33060;50.178;7.570;2022-12-18T01:36:55;15.60;;;8.93;;
47329;SDS011;33060;50.178;7.570;2022-12-18T01:39:22;15.57;;;9.03;;
47329;SDS011;33060;50.178;7.570;2022-12-18T01:41:49;15.63;;;9.47;;
47329;SDS011;33060;50.178;7.570;2022-12-18T01:47:28;13.53;;;8.23;;
47329;SDS011;33060;50.178;7.570;2022-12-18T01:50:00;17.17;;;9.10;;
47329;SDS011;33060;50.178;7.570;2022-12-18T01:52:31;15.87;;;9.40;;
47329;SDS011;33060;50.178;7.570;2022-12-18T01:54:59;18.43;;;10.00;;
47329;SDS011;33060;50.178;7.570;2022-12-18T01:57:27;17.93;;;10.93;;
47329;SDS011;33060;50.178;7.570;2022-12-18T01:59:55;17.37;;;10.80;;
47329;SDS011;33060;50.178;7.570;2022-12-18T02:02:38;13.77;;;8.33;;
47329;SDS011;33060;50.178;7.570;2022-12-18T02:05:07;18.03;;;11.03;;
47329;SDS011;33060;50.178;7.570;2022-12-18T02:18:42;17.47;;;10.00;;
47329;SDS011;33060;50.178;7.570;2022-12-18T02:26:32;16.87;;;10.40;;
47329;SDS011;33060;50.178;7.570;2022-12-18T02:29:08;17.03;;;10.60;;
47329;SDS011;33060;50.178;7.570;2022-12-18T02:31:44;15.40;;;10.27;;
47329;SDS011;33060;50.178;7.570;2022-12-18T02:34:15;17.77;;;10.30;;
47329;SDS011;33060;50.178;7.570;2022-12-18T02:36:45;17.93;;;10.27;;
47329;SDS011;33060;50.178;7.570;2022-12-18T02:39:14;20.50;;;12.03;;
47329;SDS011;33060;50.178;7.570;2022-12-18T02:41:53;18.10;;;10.87;;
47329;SDS011;33060;50.178;7.570;2022-12-18T02:44:22;20.23;;;11.40;;
47329;SDS011;33060;50.178;7.570;2022-12-18T02:46:50;21.37;;;11.73;;
47329;SDS011;33060;50.178;7.570;2022-12-18T02:49:34;21.13;;;12.30;;
47329;SDS011;33060;50.178;7.570;2022-12-18T02:52:27;18.53;;;10.77;;
47329;SDS011;33060;50.178;7.570;2022-12-18T02:55:29;19.27;;;10.77;;
47329;SDS011;33060;50.178;7.570;2022-12-18T02:58:13;20.70;;;11.83;;
47329;SDS011;33060;50.178;7.570;2022-12-18T03:03:24;20.47;;;12.43;;
47329;SDS011;33060;50.178;7.570;2022-12-18T03:06:01;20.33;;;12.63;;
47329;SDS011;33060;50.178;7.570;2022-12-18T03:08:35;24.43;;;13.77;;
47329;SDS011;33060;50.178;7.570;2022-12-18T03:11:09;21.50;;;13.07;;
47329;SDS011;33060;50.178;7.570;2022-12-18T03:13:40;20.27;;;12.17;;
47329;SDS011;33060;50.178;7.570;2022-12-18T03:16:14;21.53;;;13.27;;
47329;SDS011;33060;50.178;7.570;2022-12-18T03:21:18;22.70;;;14.43;;
47329;SDS011;33060;50.178;7.570;2022-12-18T03:23:48;21.17;;;12.90;;
47329;SDS011;33060;50.178;7.570;2022-12-18T03:26:22;21.87;;;13.77;;
47329;SDS011;33060;50.178;7.570;2022-12-18T03:28:59;22.23;;;13.43;;
47329;SDS011;33060;50.178;7.570;2022-12-18T03:31:31;21.70;;;13.47;;
47329;SDS011;33060;50.178;7.570;2022-12-18T03:33:59;22.87;;;13.67;;
47329;SDS011;33060;50.178;7.570;2022-12-18T03:36:38;24.80;;;13.67;;
47329;SDS011;33060;50.178;7.570;2022-12-18T03:39:05;23.07;;;13.33;;
47329;SDS011;33060;50.178;7.570;2022-12-18T03:41:47;24.43;;;13.27;;
47329;SDS011;33060;50.178;7.570;2022-12-18T03:44:43;24.10;;;12.43;;
47329;SDS011;33060;50.178;7.570;2022-12-18T03:47:28;23.93;;;13.43;;
47329;SDS011;33060;50.178;7.570;2022-12-18T03:50:18;20.13;;;12.43;;
47329;SDS011;33060;50.178;7.570;2022-12-18T03:55:21;24.00;;;13.60;;
47329;SDS011;33060;50.178;7.570;2022-12-18T03:57:57;23.00;;;13.23;;
47329;SDS011;33060;50.178;7.570;2022-12-18T04:00:33;21.47;;;13.10;;
47329;SDS011;33060;50.178;7.570;2022-12-18T04:03:06;20.10;;;11.77;;
47329;SDS011;33060;50.178;7.570;2022-12-18T04:05:43;19.63;;;12.50;;
47329;SDS011;33060;50.178;7.570;2022-12-18T04:08:13;25.30;;;12.90;;
47329;SDS011;33060;50.178;7.570;2022-12-18T04:10:47;23.70;;;13.80;;
47329;SDS011;33060;50.178;7.570;2022-12-18T04:13:21;24.17;;;13.13;;
47329;SDS011;33060;50.178;7.570;2022-12-18T04:15:50;20.70;;;13.43;;
47329;SDS011;33060;50.178;7.570;2022-12-18T04:18:21;20.67;;;12.63;;
47329;SDS011;33060;50.178;7.570;2022-12-18T04:20:47;19.77;;;12.10;;
47329;SDS011;33060;50.178;7.570;2022-12-18T04:23:16;21.27;;;11.73;;
47329;SDS011;33060;50.178;7.570;2022-12-18T04:25:42;20.00;;;12.67;;
47329;SDS011;33060;50.178;7.570;2022-12-18T04:28:15;19.73;;;12.13;;
47329;SDS011;33060;50.178;7.570;2022-12-18T04:30:41;21.57;;;12.77;;
47329;SDS011;33060;50.178;7.570;2022-12-18T04:33:09;18.53;;;12.00;;
47329;SDS011;33060;50.178;7.570;2022-12-18T04:35:38;22.83;;;12.97;;
47329;SDS011;33060;50.178;7.570;2022-12-18T04:38:06;25.37;;;13.67;;
47329;SDS011;33060;50.178;7.570;2022-12-18T04:40:34;23.17;;;13.30;;
47329;SDS011;33060;50.178;7.570;2022-12-18T04:43:04;23.50;;;13.80;;
47329;SDS011;33060;50.178;7.570;2022-12-18T04:45:31;24.37;;;14.47;;
47329;SDS011;33060;50.178;7.570;2022-12-18T04:47:59;24.73;;;13.47;;
47329;SDS011;33060;50.178;7.570;2022-12-18T04:50:26;23.33;;;13.60;;
47329;SDS011;33060;50.178;7.570;2022-12-18T04:52:53;23.57;;;14.20;;
47329;SDS011;33060;50.178;7.570;2022-12-18T04:55:20;22.80;;;13.60;;
47329;SDS011;33060;50.178;7.570;2022-12-18T04:57:47;23.93;;;13.40;;
47329;SDS011;33060;50.178;7.570;2022-12-18T05:00:13;21.30;;;12.00;;
47329;SDS011;33060;50.178;7.570;2022-12-18T05:02:40;26.00;;;14.63;;
47329;SDS011;33060;50.178;7.570;2022-12-18T05:05:07;20.60;;;12.53;;
47329;SDS011;33060;50.178;7.570;2022-12-18T05:07:34;22.03;;;13.77;;
47329;SDS011;33060;50.178;7.570;2022-12-18T05:10:00;20.40;;;13.50;;
47329;SDS011;33060;50.178;7.570;2022-12-18T05:12:27;25.63;;;15.77;;
47329;SDS011;33060;50.178;7.570;2022-12-18T05:14:54;24.00;;;13.63;;
47329;SDS011;33060;50.178;7.570;2022-12-18T05:17:20;20.53;;;12.13;;
47329;SDS011;33060;50.178;7.570;2022-12-18T05:19:47;22.73;;;13.20;;
47329;SDS011;33060;50.178;7.570;2022-12-18T05:22:13;24.77;;;14.60;;
47329;SDS011;33060;50.178;7.570;2022-12-18T05:24:40;25.50;;;13.97;;
47329;SDS011;33060;50.178;7.570;2022-12-18T05:27:07;27.20;;;14.77;;
47329;SDS011;33060;50.178;7.570;2022-12-18T05:29:33;20.63;;;10.57;;
47329;SDS011;33060;50.178;7.570;2022-12-18T05:32:00;22.07;;;13.50;;
47329;SDS011;33060;50.178;7.570;2022-12-18T05:34:27;22.97;;;13.40;;
47329;SDS011;33060;50.178;7.570;2022-12-18T05:36:53;22.50;;;13.33;;
47329;SDS011;33060;50.178;7.570;2022-12-18T05:39:20;22.93;;;13.13;;
47329;SDS011;33060;50.178;7.570;2022-12-18T05:41:46;22.83;;;14.10;;
47329;SDS011;33060;50.178;7.570;2022-12-18T05:44:13;23.17;;;13.80;;
47329;SDS011;33060;50.178;7.570;2022-12-18T05:46:41;25.97;;;14.60;;
47329;SDS011;33060;50.178;7.570;2022-12-18T05:49:08;22.27;;;13.87;;
47329;SDS011;33060;50.178;7.570;2022-12-18T05:51:35;24.60;;;13.40;;
47329;SDS011;33060;50.178;7.570;2022-12-18T05:54:02;23.67;;;13.63;;
47329;SDS011;33060;50.178;7.570;2022-12-18T05:56:29;19.97;;;11.93;;
47329;SDS011;33060;50.178;7.570;2022-12-18T05:58:55;23.50;;;14.47;;
47329;SDS011;33060;50.178;7.570;2022-12-18T06:01:24;24.93;;;13.83;;
47329;SDS011;33060;50.178;7.570;2022-12-18T06:03:53;23.07;;;13.57;;
47329;SDS011;33060;50.178;7.570;2022-12-18T06:06:21;25.07;;;13.60;;
47329;SDS011;33060;50.178;7.570;2022-12-18T06:08:49;24.73;;;13.70;;
47329;SDS011;33060;50.178;7.570;2022-12-18T06:11:18;21.27;;;13.47;;
47329;SDS011;33060;50.178;7.570;2022-12-18T06:13:46;23.57;;;13.73;;
47329;SDS011;33060;50.178;7.570;2022-12-18T06:16:23;24.87;;;13.80;;
47329;SDS011;33060;50.178;7.570;2022-12-18T06:18:49;24.87;;;13.70;;
47329;SDS011;33060;50.178;7.570;2022-12-18T06:21:16;24.20;;;13.50;;
47329;SDS011;33060;50.178;7.570;2022-12-18T06:23:42;25.30;;;13.93;;
47329;SDS011;33060;50.178;7.570;2022-12-18T06:26:10;25.00;;;13.67;;
47329;SDS011;33060;50.178;7.570;2022-12-18T06:28:38;21.13;;;13.23;;
47329;SDS011;33060;50.178;7.570;2022-12-18T06:31:06;21.73;;;13.23;;
47329;SDS011;33060;50.178;7.570;2022-12-18T06:33:33;20.50;;;12.10;;
47329;SDS011;33060;50.178;7.570;2022-12-18T06:36:02;23.00;;;13.97;;
47329;SDS011;33060;50.178;7.570;2022-12-18T06:38:29;22.63;;;13.07;;
47329;SDS011;33060;50.178;7.570;2022-12-18T06:40:55;23.03;;;14.37;;
47329;SDS011;33060;50.178;7.570;2022-12-18T06:43:22;24.00;;;14.43;;
47329;SDS011;33060;50.178;7.570;2022-12-18T06:45:49;25.33;;;14.27;;
47329;SDS011;33060;50.178;7.570;2022-12-18T06:48:19;22.53;;;14.20;;
47329;SDS011;33060;50.178;7.570;2022-12-18T06:50:46;24.73;;;14.30;;
47329;SDS011;33060;50.178;7.570;2022-12-18T06:53:13;25.83;;;14.67;;
47329;SDS011;33060;50.178;7.570;2022-12-18T06:55:40;21.37;;;13.80;;
47329;SDS011;33060;50.178;7.570;2022-12-18T06:58:07;25.23;;;14.63;;
47329;SDS011;33060;50.178;7.570;2022-12-18T07:00:35;24.83;;;15.13;;
47329;SDS011;33060;50.178;7.570;2022-12-18T07:03:02;22.50;;;13.87;;
47329;SDS011;33060;50.178;7.570;2022-12-18T07:05:29;23.10;;;14.27;;
47329;SDS011;33060;50.178;7.570;2022-12-18T07:07:55;20.37;;;12.33;;
47329;SDS011;33060;50.178;7.570;2022-12-18T07:10:22;22.03;;;13.73;;
47329;SDS011;33060;50.178;7.570;2022-12-18T07:12:49;22.90;;;13.97;;
47329;SDS011;33060;50.178;7.570;2022-12-18T07:15:15;23.77;;;14.20;;
47329;SDS011;33060;50.178;7.570;2022-12-18T07:17:42;23.37;;;14.73;;
47329;SDS011;33060;50.178;7.570;2022-12-18T07:20:09;18.47;;;11.40;;
47329;SDS011;33060;50.178;7.570;2022-12-18T07:22:36;24.40;;;13.83;;
47329;SDS011;33060;50.178;7.570;2022-12-18T07:25:03;24.83;;;14.87;;
47329;SDS011;33060;50.178;7.570;2022-12-18T07:27:30;27.83;;;16.80;;
47329;SDS011;33060;50.178;7.570;2022-12-18T07:29:56;25.67;;;14.33;;
47329;SDS011;33060;50.178;7.570;2022-12-18T07:32:23;25.00;;;14.47;;
47329;SDS011;33060;50.178;7.570;2022-12-18T07:34:50;23.40;;;13.47;;
47329;SDS011;33060;50.178;7.570;2022-12-18T07:37:16;29.30;;;15.63;;
47329;SDS011;33060;50.178;7.570;2022-12-18T07:39:43;25.40;;;15.20;;
47329;SDS011;33060;50.178;7.570;2022-12-18T07:42:10;24.90;;;14.30;;
47329;SDS011;33060;50.178;7.570;2022-12-18T07:44:55;25.03;;;14.47;;
47329;SDS011;33060;50.178;7.570;2022-12-18T07:47:21;25.03;;;14.77;;
47329;SDS011;33060;50.178;7.570;2022-12-18T07:49:48;25.33;;;14.60;;
47329;SDS011;33060;50.178;7.570;2022-12-18T07:52:15;27.10;;;14.73;;
47329;SDS011;33060;50.178;7.570;2022-12-18T07:54:48;26.37;;;14.80;;
47329;SDS011;33060;50.178;7.570;2022-12-18T07:57:16;24.00;;;12.77;;
47329;SDS011;33060;50.178;7.570;2022-12-18T08:00:04;25.40;;;14.53;;
47329;SDS011;33060;50.178;7.570;2022-12-18T08:02:37;24.10;;;14.47;;
47329;SDS011;33060;50.178;7.570;2022-12-18T08:05:04;26.93;;;15.60;;
47329;SDS011;33060;50.178;7.570;2022-12-18T08:07:32;26.13;;;15.33;;
47329;SDS011;33060;50.178;7.570;2022-12-18T08:09:58;23.87;;;14.20;;
47329;SDS011;33060;50.178;7.570;2022-12-18T08:12:25;25.03;;;15.03;;
47329;SDS011;33060;50.178;7.570;2022-12-18T08:14:52;26.33;;;15.57;;
47329;SDS011;33060;50.178;7.570;2022-12-18T08:17:19;23.83;;;14.10;;
47329;SDS011;33060;50.178;7.570;2022-12-18T08:19:46;26.17;;;15.70;;
47329;SDS011;33060;50.178;7.570;2022-12-18T08:22:13;24.03;;;15.10;;
47329;SDS011;33060;50.178;7.570;2022-12-18T08:24:40;25.03;;;15.60;;
47329;SDS011;33060;50.178;7.570;2022-12-18T08:27:06;26.97;;;14.50;;
47329;SDS011;33060;50.178;7.570;2022-12-18T08:29:53;26.23;;;14.83;;
47329;SDS011;33060;50.178;7.570;2022-12-18T08:32:19;23.40;;;14.50;;
47329;SDS011;33060;50.178;7.570;2022-12-18T08:34:46;25.00;;;15.83;;
47329;SDS011;33060;50.178;7.570;2022-12-18T08:37:13;28.73;;;15.30;;
47329;SDS011;33060;50.178;7.570;2022-12-18T08:39:39;27.17;;;15.40;;
47329;SDS011;33060;50.178;7.570;2022-12-18T08:42:06;25.27;;;15.17;;
47329;SDS011;33060;50.178;7.570;2022-12-18T08:44:51;27.17;;;14.67;;
47329;SDS011;33060;50.178;7.570;2022-12-18T08:47:18;26.67;;;15.20;;
47329;SDS011;33060;50.178;7.570;2022-12-18T08:49:44;23.57;;;14.80;;
47329;SDS011;33060;50.178;7.570;2022-12-18T08:52:14;24.37;;;14.87;;
47329;SDS011;33060;50.178;7.570;2022-12-18T08:54:41;27.70;;;16.13;;
47329;SDS011;33060;50.178;7.570;2022-12-18T08:57:07;24.40;;;14.93;;
47329;SDS011;33060;50.178;7.570;2022-12-18T08:59:34;23.33;;;15.23;;
47329;SDS011;33060;50.178;7.570;2022-12-18T09:02:00;26.73;;;15.53;;
47329;SDS011;33060;50.178;7.570;2022-12-18T09:04:27;26.90;;;15.57;;
47329;SDS011;33060;50.178;7.570;2022-12-18T09:06:54;26.60;;;15.57;;
47329;SDS011;33060;50.178;7.570;2022-12-18T09:09:20;26.70;;;16.97;;
47329;SDS011;33060;50.178;7.570;2022-12-18T09:11:47;22.50;;;13.60;;
47329;SDS011;33060;50.178;7.570;2022-12-18T09:14:14;23.57;;;14.43;;
47329;SDS011;33060;50.178;7.570;2022-12-18T09:16:40;26.87;;;15.33;;
47329;SDS011;33060;50.178;7.570;2022-12-18T09:19:07;26.60;;;15.13;;
47329;SDS011;33060;50.178;7.570;2022-12-18T09:21:36;28.50;;;14.40;;
47329;SDS011;33060;50.178;7.570;2022-12-18T09:24:08;22.57;;;14.63;;
47329;SDS011;33060;50.178;7.570;2022-12-18T09:26:38;23.07;;;15.13;;
47329;SDS011;33060;50.178;7.570;2022-12-18T09:29:06;24.07;;;14.50;;
47329;SDS011;33060;50.178;7.570;2022-12-18T09:31:33;25.73;;;14.87;;
47329;SDS011;33060;50.178;7.570;2022-12-18T09:34:01;26.07;;;15.10;;
47329;SDS011;33060;50.178;7.570;2022-12-18T09:36:27;26.13;;;14.73;;
47329;SDS011;33060;50.178;7.570;2022-12-18T09:38:54;23.07;;;15.37;;
47329;SDS011;33060;50.178;7.570;2022-12-18T09:41:36;24.13;;;14.70;;
47329;SDS011;33060;50.178;7.570;2022-12-18T09:44:10;25.07;;;15.33;;
47329;SDS011;33060;50.178;7.570;2022-12-18T09:46:52;25.83;;;15.23;;
47329;SDS011;33060;50.178;7.570;2022-12-18T09:49:25;27.03;;;15.63;;
47329;SDS011;33060;50.178;7.570;2022-12-18T09:52:00;23.97;;;14.90;;
47329;SDS011;33060;50.178;7.570;2022-12-18T09:54:44;25.23;;;15.33;;
47329;SDS011;33060;50.178;7.570;2022-12-18T09:57:18;24.37;;;15.30;;
47329;SDS011;33060;50.178;7.570;2022-12-18T09:59:50;23.97;;;14.33;;
47329;SDS011;33060;50.178;7.570;2022-12-18T10:02:25;25.73;;;15.10;;
47329;SDS011;33060;50.178;7.570;2022-12-18T10:05:04;23.17;;;14.77;;
47329;SDS011;33060;50.178;7.570;2022-12-18T10:10:50;22.50;;;13.80;;
47329;SDS011;33060;50.178;7.570;2022-12-18T10:13:21;24.13;;;14.47;;
47329;SDS011;33060;50.178;7.570;2022-12-18T10:18:47;23.33;;;15.50;;
47329;SDS011;33060;50.178;7.570;2022-12-18T10:21:36;25.17;;;15.13;;
47329;SDS011;33060;50.178;7.570;2022-12-18T10:27:18;23.23;;;14.53;;
47329;SDS011;33060;50.178;7.570;2022-12-18T10:29:49;22.47;;;14.03;;
47329;SDS011;33060;50.178;7.570;2022-12-18T10:32:18;27.63;;;15.37;;
47329;SDS011;33060;50.178;7.570;2022-12-18T10:34:47;25.57;;;15.07;;
47329;SDS011;33060;50.178;7.570;2022-12-18T10:37:27;22.83;;;14.17;;
47329;SDS011;33060;50.178;7.570;2022-12-18T10:40:12;27.87;;;17.03;;
47329;SDS011;33060;50.178;7.570;2022-12-18T10:42:57;33.53;;;19.60;;
47329;SDS011;33060;50.178;7.570;2022-12-18T10:45:39;22.27;;;15.03;;
47329;SDS011;33060;50.178;7.570;2022-12-18T10:48:18;32.70;;;19.87;;
47329;SDS011;33060;50.178;7.570;2022-12-18T10:50:47;24.57;;;15.77;;
47329;SDS011;33060;50.178;7.570;2022-12-18T10:53:38;25.77;;;15.30;;
47329;SDS011;33060;50.178;7.570;2022-12-18T10:56:08;23.40;;;14.60;;
47329;SDS011;33060;50.178;7.570;2022-12-18T10:58:36;27.07;;;16.07;;
47329;SDS011;33060;50.178;7.570;2022-12-18T11:06:17;25.47;;;15.40;;
47329;SDS011;33060;50.178;7.570;2022-12-18T11:08:58;25.03;;;16.10;;
47329;SDS011;33060;50.178;7.570;2022-12-18T11:11:37;25.97;;;15.93;;
47329;SDS011;33060;50.178;7.570;2022-12-18T11:14:05;23.97;;;15.17;;
47329;SDS011;33060;50.178;7.570;2022-12-18T11:16:48;25.73;;;15.77;;
47329;SDS011;33060;50.178;7.570;2022-12-18T11:19:40;26.10;;;15.63;;
47329;SDS011;33060;50.178;7.570;2022-12-18T11:22:20;24.50;;;15.70;;
47329;SDS011;33060;50.178;7.570;2022-12-18T11:24:52;22.47;;;14.97;;
47329;SDS011;33060;50.178;7.570;2022-12-18T11:27:46;23.77;;;14.57;;
47329;SDS011;33060;50.178;7.570;2022-12-18T11:32:56;26.50;;;15.83;;
47329;SDS011;33060;50.178;7.570;2022-12-18T11:35:32;25.37;;;15.73;;
47329;SDS011;33060;50.178;7.570;2022-12-18T11:41:24;24.70;;;15.83;;
47329;SDS011;33060;50.178;7.570;2022-12-18T11:44:24;26.40;;;16.73;;
47329;SDS011;33060;50.178;7.570;2022-12-18T11:47:09;24.80;;;15.47;;
47329;SDS011;33060;50.178;7.570;2022-12-18T11:49:53;25.13;;;15.73;;
47329;SDS011;33060;50.178;7.570;2022-12-18T11:52:24;25.40;;;15.70;;
47329;SDS011;33060;50.178;7.570;2022-12-18T11:55:00;26.47;;;15.60;;
47329;SDS011;33060;50.178;7.570;2022-12-18T11:57:37;28.60;;;16.27;;
47329;SDS011;33060;50.178;7.570;2022-12-18T12:10:42;26.10;;;16.30;;
47329;SDS011;33060;50.178;7.570;2022-12-18T12:16:25;26.23;;;16.53;;
47329;SDS011;33060;50.178;7.570;2022-12-18T12:24:56;26.17;;;16.37;;
47329;SDS011;33060;50.178;7.570;2022-12-18T12:30:21;26.83;;;15.57;;
47329;SDS011;33060;50.178;7.570;2022-12-18T12:39:05;27.93;;;16.50;;
47329;SDS011;33060;50.178;7.570;2022-12-18T12:41:36;26.40;;;16.23;;
47329;SDS011;33060;50.178;7.570;2022-12-18T12:44:25;29.23;;;17.00;;
47329;SDS011;33060;50.178;7.570;2022-12-18T12:46:57;28.20;;;15.80;;
47329;SDS011;33060;50.178;7.570;2022-12-18T12:49:27;29.30;;;18.67;;
47329;SDS011;33060;50.178;7.570;2022-12-18T12:52:11;28.40;;;16.80;;
47329;SDS011;33060;50.178;7.570;2022-12-18T12:54:41;28.73;;;17.20;;
47329;SDS011;33060;50.178;7.570;2022-12-18T12:57:10;27.23;;;16.83;;
47329;SDS011;33060;50.178;7.570;2022-12-18T12:59:47;27.70;;;16.50;;
47329;SDS011;33060;50.178;7.570;2022-12-18T13:02:23;28.43;;;17.00;;
47329;SDS011;33060;50.178;7.570;2022-12-18T13:04:58;27.10;;;16.23;;
47329;SDS011;33060;50.178;7.570;2022-12-18T13:07:33;27.20;;;16.17;;
47329;SDS011;33060;50.178;7.570;2022-12-18T13:10:12;23.43;;;16.30;;
47329;SDS011;33060;50.178;7.570;2022-12-18T13:18:02;31.50;;;17.63;;
47329;SDS011;33060;50.178;7.570;2022-12-18T13:20:35;28.13;;;17.03;;
47329;SDS011;33060;50.178;7.570;2022-12-18T13:25:53;30.87;;;17.80;;
47329;SDS011;33060;50.178;7.570;2022-12-18T13:33:44;30.87;;;18.27;;
47329;SDS011;33060;50.178;7.570;2022-12-18T13:36:33;31.57;;;18.57;;
47329;SDS011;33060;50.178;7.570;2022-12-18T13:41:50;30.83;;;18.20;;
47329;SDS011;33060;50.178;7.570;2022-12-18T13:44:31;32.83;;;17.37;;
47329;SDS011;33060;50.178;7.570;2022-12-18T13:49:57;30.83;;;18.20;;
47329;SDS011;33060;50.178;7.570;2022-12-18T13:52:26;28.23;;;17.67;;
47329;SDS011;33060;50.178;7.570;2022-12-18T13:55:02;28.97;;;17.57;;
47329;SDS011;33060;50.178;7.570;2022-12-18T13:57:34;31.37;;;17.70;;
47329;SDS011;33060;50.178;7.570;2022-12-18T14:02:55;28.80;;;17.50;;
47329;SDS011;33060;50.178;7.570;2022-12-18T14:05:24;32.07;;;19.13;;
47329;SDS011;33060;50.178;7.570;2022-12-18T14:07:53;34.40;;;19.67;;
47329;SDS011;33060;50.178;7.570;2022-12-18T14:10:22;32.73;;;18.17;;
47329;SDS011;33060;50.178;7.570;2022-12-18T14:13:09;35.27;;;19.97;;
47329;SDS011;33060;50.178;7.570;2022-12-18T14:21:27;33.17;;;19.30;;
47329;SDS011;33060;50.178;7.570;2022-12-18T14:26:31;34.03;;;18.73;;
47329;SDS011;33060;50.178;7.570;2022-12-18T14:29:00;35.83;;;19.37;;
47329;SDS011;33060;50.178;7.570;2022-12-18T14:31:44;35.57;;;20.07;;
47329;SDS011;33060;50.178;7.570;2022-12-18T14:34:35;34.50;;;19.50;;
47329;SDS011;33060;50.178;7.570;2022-12-18T14:37:01;32.37;;;18.53;;
47329;SDS011;33060;50.178;7.570;2022-12-18T14:39:28;33.27;;;20.63;;
47329;SDS011;33060;50.178;7.570;2022-12-18T14:41:55;36.73;;;20.03;;
47329;SDS011;33060;50.178;7.570;2022-12-18T14:44:21;35.27;;;19.77;;
47329;SDS011;33060;50.178;7.570;2022-12-18T14:46:49;35.70;;;20.07;;
47329;SDS011;33060;50.178;7.570;2022-12-18T14:49:21;32.80;;;19.90;;
47329;SDS011;33060;50.178;7.570;2022-12-18T14:51:53;35.83;;;20.47;;
47329;SDS011;33060;50.178;7.570;2022-12-18T14:54:22;34.73;;;19.80;;
47329;SDS011;33060;50.178;7.570;2022-12-18T14:57:35;36.33;;;20.67;;
47329;SDS011;33060;50.178;7.570;2022-12-18T14:59:51;37.23;;;21.40;;
47329;SDS011;33060;50.178;7.570;2022-12-18T15:02:22;33.83;;;20.37;;
47329;SDS011;33060;50.178;7.570;2022-12-18T15:05:02;36.00;;;19.70;;
47329;SDS011;33060;50.178;7.570;2022-12-18T15:07:42;37.33;;;20.87;;
47329;SDS011;33060;50.178;7.570;2022-12-18T15:10:21;35.73;;;18.87;;
47329;SDS011;33060;50.178;7.570;2022-12-18T15:18:00;39.57;;;21.07;;
47329;SDS011;33060;50.178;7.570;2022-12-18T15:20:27;40.27;;;21.07;;
47329;SDS011;33060;50.178;7.570;2022-12-18T15:22:58;41.90;;;22.47;;
47329;SDS011;33060;50.178;7.570;2022-12-18T15:25:31;35.67;;;22.23;;
47329;SDS011;33060;50.178;7.570;2022-12-18T15:28:00;42.47;;;22.87;;
47329;SDS011;33060;50.178;7.570;2022-12-18T15:30:27;38.57;;;22.33;;
47329;SDS011;33060;50.178;7.570;2022-12-18T15:33:16;36.60;;;21.53;;
47329;SDS011;33060;50.178;7.570;2022-12-18T15:35:57;39.97;;;22.07;;
47329;SDS011;33060;50.178;7.570;2022-12-18T15:38:28;42.97;;;23.20;;
47329;SDS011;33060;50.178;7.570;2022-12-18T15:40:55;41.07;;;22.40;;
47329;SDS011;33060;50.178;7.570;2022-12-18T15:43:23;39.23;;;21.40;;
47329;SDS011;33060;50.178;7.570;2022-12-18T15:46:00;40.13;;;23.33;;
47329;SDS011;33060;50.178;7.570;2022-12-18T15:48:33;43.33;;;22.93;;
47329;SDS011;33060;50.178;7.570;2022-12-18T15:51:00;37.53;;;21.43;;
47329;SDS011;33060;50.178;7.570;2022-12-18T15:53:29;41.87;;;22.53;;
47329;SDS011;33060;50.178;7.570;2022-12-18T15:55:58;43.63;;;22.57;;
47329;SDS011;33060;50.178;7.570;2022-12-18T15:58:44;37.20;;;21.73;;
47329;SDS011;33060;50.178;7.570;2022-12-18T16:01:10;40.23;;;23.10;;
47329;SDS011;33060;50.178;7.570;2022-12-18T16:03:38;36.57;;;21.37;;
47329;SDS011;33060;50.178;7.570;2022-12-18T16:06:05;40.63;;;22.60;;
47329;SDS011;33060;50.178;7.570;2022-12-18T16:08:32;41.13;;;22.53;;
47329;SDS011;33060;50.178;7.570;2022-12-18T16:10:59;40.10;;;22.40;;
47329;SDS011;33060;50.178;7.570;2022-12-18T16:13:26;44.93;;;22.80;;
47329;SDS011;33060;50.178;7.570;2022-12-18T16:15:53;41.13;;;22.10;;
47329;SDS011;33060;50.178;7.570;2022-12-18T16:18:19;39.93;;;22.70;;
47329;SDS011;33060;50.178;7.570;2022-12-18T16:20:46;39.77;;;21.80;;
47329;SDS011;33060;50.178;7.570;2022-12-18T16:23:12;42.23;;;22.33;;
47329;SDS011;33060;50.178;7.570;2022-12-18T16:25:39;41.63;;;23.07;;
47329;SDS011;33060;50.178;7.570;2022-12-18T16:28:06;41.23;;;21.03;;
47329;SDS011;33060;50.178;7.570;2022-12-18T16:30:32;35.03;;;21.00;;
47329;SDS011;33060;50.178;7.570;2022-12-18T16:33:04;40.80;;;22.03;;
47329;SDS011;33060;50.178;7.570;2022-12-18T16:35:32;37.03;;;21.77;;
47329;SDS011;33060;50.178;7.570;2022-12-18T16:37:59;42.53;;;22.17;;